sensor_id;sensor_type;location;lat;lon;timestamp;P1;durP1;ratioP1;P2;durP2;ratioP2
809;SDS011;387;48.772;9.186;2024-03-08T00:00:40;37.50;;;17.10;;
809;SDS011;387;48.772;9.186;2024-03-08T00:03:07;40.07;;;17.80;;
809;SDS011;387;48.772;9.186;2024-03-08T00:05:35;39.40;;;17.47;;
809;SDS011;387;48.772;9.186;2024-03-08T00:08:01;38.70;;;17.30;;
809;SDS011;387;48.772;9.186;2024-03-08T00:10:27;42.93;;;19.33;;
809;SDS011;387;48.772;9.186;2024-03-08T00:12:53;41.43;;;17.83;;
809;SDS011;387;48.772;9.186;2024-03-08T00:15:19;40.90;;;18.33;;
809;SDS011;387;48.772;9.186;2024-03-08T00:17:47;40.70;;;18.67;;
809;SDS011;387;48.772;9.186;2024-03-08T00:20:13;44.87;;;18.90;;
809;SDS011;387;48.772;9.186;2024-03-08T00:22:39;34.13;;;16.97;;
809;SDS011;387;48.772;9.186;2024-03-08T00:25:05;39.30;;;18.30;;
809;SDS011;387;48.772;9.186;2024-03-08T00:27:33;35.07;;;17.53;;
809;SDS011;387;48.772;9.186;2024-03-08T00:29:59;39.63;;;18.93;;
809;SDS011;387;48.772;9.186;2024-03-08T00:32:25;36.70;;;17.77;;
809;SDS011;387;48.772;9.186;2024-03-08T00:34:52;41.43;;;19.67;;
809;SDS011;387;48.772;9.186;2024-03-08T00:37:21;35.00;;;17.53;;
809;SDS011;387;48.772;9.186;2024-03-08T00:39:49;41.90;;;19.30;;
809;SDS011;387;48.772;9.186;2024-03-08T00:42:16;42.33;;;17.63;;
809;SDS011;387;48.772;9.186;2024-03-08T00:44:42;41.87;;;19.40;;
809;SDS011;387;48.772;9.186;2024-03-08T00:47:08;39.83;;;18.00;;
809;SDS011;387;48.772;9.186;2024-03-08T00:49:34;44.47;;;20.30;;
809;SDS011;387;48.772;9.186;2024-03-08T00:52:01;38.73;;;18.90;;
809;SDS011;387;48.772;9.186;2024-03-08T00:54:27;40.03;;;18.40;;
809;SDS011;387;48.772;9.186;2024-03-08T00:56:53;45.30;;;19.30;;
809;SDS011;387;48.772;9.186;2024-03-08T00:59:18;43.90;;;18.80;;
809;SDS011;387;48.772;9.186;2024-03-08T01:01:44;41.77;;;18.40;;
809;SDS011;387;48.772;9.186;2024-03-08T01:04:10;44.60;;;18.83;;
809;SDS011;387;48.772;9.186;2024-03-08T01:06:36;39.77;;;19.20;;
809;SDS011;387;48.772;9.186;2024-03-08T01:09:02;41.43;;;18.50;;
809;SDS011;387;48.772;9.186;2024-03-08T01:11:28;41.00;;;18.53;;
809;SDS011;387;48.772;9.186;2024-03-08T01:13:53;46.80;;;19.93;;
809;SDS011;387;48.772;9.186;2024-03-08T01:16:19;44.30;;;20.73;;
809;SDS011;387;48.772;9.186;2024-03-08T01:18:48;43.53;;;18.67;;
809;SDS011;387;48.772;9.186;2024-03-08T01:21:13;39.07;;;18.33;;
809;SDS011;387;48.772;9.186;2024-03-08T01:23:39;37.40;;;17.63;;
809;SDS011;387;48.772;9.186;2024-03-08T01:26:04;44.33;;;19.77;;
809;SDS011;387;48.772;9.186;2024-03-08T01:28:31;43.30;;;19.63;;
809;SDS011;387;48.772;9.186;2024-03-08T01:30:58;46.20;;;19.03;;
809;SDS011;387;48.772;9.186;2024-03-08T01:33:25;41.77;;;19.13;;
809;SDS011;387;48.772;9.186;2024-03-08T01:35:51;44.40;;;19.20;;
809;SDS011;387;48.772;9.186;2024-03-08T01:38:18;45.13;;;20.37;;
809;SDS011;387;48.772;9.186;2024-03-08T01:40:46;43.30;;;20.10;;
809;SDS011;387;48.772;9.186;2024-03-08T01:43:16;40.03;;;17.60;;
809;SDS011;387;48.772;9.186;2024-03-08T01:45:43;45.73;;;21.63;;
809;SDS011;387;48.772;9.186;2024-03-08T01:48:08;38.00;;;18.50;;
809;SDS011;387;48.772;9.186;2024-03-08T01:50:35;35.77;;;17.10;;
809;SDS011;387;48.772;9.186;2024-03-08T01:53:01;41.97;;;18.60;;
809;SDS011;387;48.772;9.186;2024-03-08T01:55:28;42.03;;;19.10;;
809;SDS011;387;48.772;9.186;2024-03-08T01:57:53;42.37;;;19.37;;
809;SDS011;387;48.772;9.186;2024-03-08T02:00:20;45.67;;;20.20;;
809;SDS011;387;48.772;9.186;2024-03-08T02:02:46;46.67;;;21.90;;
809;SDS011;387;48.772;9.186;2024-03-08T02:05:14;50.83;;;21.07;;
809;SDS011;387;48.772;9.186;2024-03-08T02:07:41;47.93;;;19.20;;
809;SDS011;387;48.772;9.186;2024-03-08T02:10:09;52.37;;;20.60;;
809;SDS011;387;48.772;9.186;2024-03-08T02:12:35;42.70;;;18.00;;
809;SDS011;387;48.772;9.186;2024-03-08T02:15:01;40.10;;;18.40;;
809;SDS011;387;48.772;9.186;2024-03-08T02:17:26;45.17;;;19.77;;
809;SDS011;387;48.772;9.186;2024-03-08T02:19:52;44.13;;;19.70;;
809;SDS011;387;48.772;9.186;2024-03-08T02:22:18;45.13;;;19.37;;
809;SDS011;387;48.772;9.186;2024-03-08T02:24:45;42.92;;;19.48;;
809;SDS011;387;48.772;9.186;2024-03-08T02:27:10;39.10;;;18.37;;
809;SDS011;387;48.772;9.186;2024-03-08T02:29:36;39.60;;;17.60;;
809;SDS011;387;48.772;9.186;2024-03-08T02:32:06;38.43;;;16.90;;
809;SDS011;387;48.772;9.186;2024-03-08T02:34:31;42.90;;;19.83;;
809;SDS011;387;48.772;9.186;2024-03-08T02:36:57;39.13;;;17.30;;
809;SDS011;387;48.772;9.186;2024-03-08T02:39:22;44.90;;;19.13;;
809;SDS011;387;48.772;9.186;2024-03-08T02:41:48;46.87;;;21.03;;
809;SDS011;387;48.772;9.186;2024-03-08T02:44:13;38.60;;;17.60;;
809;SDS011;387;48.772;9.186;2024-03-08T02:46:40;43.03;;;19.20;;
809;SDS011;387;48.772;9.186;2024-03-08T02:49:05;43.57;;;18.60;;
809;SDS011;387;48.772;9.186;2024-03-08T02:51:32;40.43;;;17.17;;
809;SDS011;387;48.772;9.186;2024-03-08T02:54:00;34.43;;;16.67;;
809;SDS011;387;48.772;9.186;2024-03-08T02:56:25;31.70;;;16.00;;
809;SDS011;387;48.772;9.186;2024-03-08T02:58:51;37.33;;;16.73;;
809;SDS011;387;48.772;9.186;2024-03-08T03:01:17;32.57;;;16.77;;
809;SDS011;387;48.772;9.186;2024-03-08T03:03:45;46.30;;;16.60;;
809;SDS011;387;48.772;9.186;2024-03-08T03:06:12;41.88;;;16.80;;
809;SDS011;387;48.772;9.186;2024-03-08T03:08:39;38.85;;;17.70;;
809;SDS011;387;48.772;9.186;2024-03-08T03:11:07;36.97;;;16.80;;
809;SDS011;387;48.772;9.186;2024-03-08T03:13:33;39.03;;;16.70;;
809;SDS011;387;48.772;9.186;2024-03-08T03:15:58;37.20;;;16.40;;
809;SDS011;387;48.772;9.186;2024-03-08T03:18:24;36.93;;;17.03;;
809;SDS011;387;48.772;9.186;2024-03-08T03:20:51;38.40;;;16.57;;
809;SDS011;387;48.772;9.186;2024-03-08T03:23:16;33.07;;;15.40;;
809;SDS011;387;48.772;9.186;2024-03-08T03:25:45;36.90;;;17.03;;
809;SDS011;387;48.772;9.186;2024-03-08T03:28:11;38.63;;;16.93;;
809;SDS011;387;48.772;9.186;2024-03-08T03:30:39;41.77;;;16.80;;
809;SDS011;387;48.772;9.186;2024-03-08T03:33:05;36.40;;;16.97;;
809;SDS011;387;48.772;9.186;2024-03-08T03:35:34;37.23;;;17.50;;
809;SDS011;387;48.772;9.186;2024-03-08T03:38:01;36.23;;;15.80;;
809;SDS011;387;48.772;9.186;2024-03-08T03:40:31;30.40;;;15.37;;
809;SDS011;387;48.772;9.186;2024-03-08T03:43:00;37.20;;;15.57;;
809;SDS011;387;48.772;9.186;2024-03-08T03:45:27;37.60;;;16.20;;
809;SDS011;387;48.772;9.186;2024-03-08T03:47:53;30.90;;;14.80;;
809;SDS011;387;48.772;9.186;2024-03-08T03:50:19;35.10;;;16.40;;
809;SDS011;387;48.772;9.186;2024-03-08T03:52:45;38.70;;;17.77;;
809;SDS011;387;48.772;9.186;2024-03-08T03:55:12;39.47;;;16.67;;
809;SDS011;387;48.772;9.186;2024-03-08T03:57:38;37.17;;;17.33;;
809;SDS011;387;48.772;9.186;2024-03-08T04:00:05;31.13;;;14.30;;
809;SDS011;387;48.772;9.186;2024-03-08T04:02:31;34.70;;;15.80;;
809;SDS011;387;48.772;9.186;2024-03-08T04:04:57;40.00;;;16.77;;
809;SDS011;387;48.772;9.186;2024-03-08T04:07:23;34.70;;;17.53;;
809;SDS011;387;48.772;9.186;2024-03-08T04:09:49;33.43;;;16.27;;
809;SDS011;387;48.772;9.186;2024-03-08T04:12:15;37.20;;;16.53;;
809;SDS011;387;48.772;9.186;2024-03-08T04:14:41;35.40;;;16.90;;
809;SDS011;387;48.772;9.186;2024-03-08T04:17:07;32.47;;;15.70;;
809;SDS011;387;48.772;9.186;2024-03-08T04:19:34;34.67;;;16.13;;
809;SDS011;387;48.772;9.186;2024-03-08T04:22:00;41.87;;;17.53;;
809;SDS011;387;48.772;9.186;2024-03-08T04:24:27;34.47;;;16.40;;
809;SDS011;387;48.772;9.186;2024-03-08T04:26:52;37.97;;;16.33;;
809;SDS011;387;48.772;9.186;2024-03-08T04:29:18;38.87;;;17.97;;
809;SDS011;387;48.772;9.186;2024-03-08T04:31:44;41.63;;;18.27;;
809;SDS011;387;48.772;9.186;2024-03-08T04:34:09;34.07;;;16.97;;
809;SDS011;387;48.772;9.186;2024-03-08T04:36:35;37.87;;;17.77;;
809;SDS011;387;48.772;9.186;2024-03-08T04:39:01;35.60;;;16.50;;
809;SDS011;387;48.772;9.186;2024-03-08T04:41:27;34.17;;;16.17;;
809;SDS011;387;48.772;9.186;2024-03-08T04:43:55;36.97;;;17.23;;
809;SDS011;387;48.772;9.186;2024-03-08T04:46:22;36.30;;;17.80;;
809;SDS011;387;48.772;9.186;2024-03-08T04:48:48;34.90;;;16.50;;
809;SDS011;387;48.772;9.186;2024-03-08T04:51:14;38.57;;;17.23;;
809;SDS011;387;48.772;9.186;2024-03-08T04:53:40;41.80;;;18.80;;
809;SDS011;387;48.772;9.186;2024-03-08T04:56:06;39.70;;;17.20;;
809;SDS011;387;48.772;9.186;2024-03-08T04:58:32;33.70;;;17.53;;
809;SDS011;387;48.772;9.186;2024-03-08T05:01:00;36.00;;;17.07;;
809;SDS011;387;48.772;9.186;2024-03-08T05:03:26;33.00;;;16.50;;
809;SDS011;387;48.772;9.186;2024-03-08T05:05:52;39.20;;;17.73;;
809;SDS011;387;48.772;9.186;2024-03-08T05:08:18;42.43;;;16.73;;
809;SDS011;387;48.772;9.186;2024-03-08T05:10:44;38.80;;;18.13;;
809;SDS011;387;48.772;9.186;2024-03-08T05:13:10;42.73;;;17.47;;
809;SDS011;387;48.772;9.186;2024-03-08T05:15:35;37.53;;;17.73;;
809;SDS011;387;48.772;9.186;2024-03-08T05:18:01;37.20;;;17.43;;
809;SDS011;387;48.772;9.186;2024-03-08T05:20:27;37.73;;;17.00;;
809;SDS011;387;48.772;9.186;2024-03-08T05:22:52;36.77;;;17.30;;
809;SDS011;387;48.772;9.186;2024-03-08T05:25:18;41.27;;;17.20;;
809;SDS011;387;48.772;9.186;2024-03-08T05:27:43;32.60;;;15.70;;
809;SDS011;387;48.772;9.186;2024-03-08T05:30:09;39.33;;;17.27;;
809;SDS011;387;48.772;9.186;2024-03-08T05:32:40;41.63;;;16.97;;
809;SDS011;387;48.772;9.186;2024-03-08T05:35:09;38.13;;;18.00;;
809;SDS011;387;48.772;9.186;2024-03-08T05:37:37;36.97;;;17.67;;
809;SDS011;387;48.772;9.186;2024-03-08T05:40:03;41.17;;;17.90;;
809;SDS011;387;48.772;9.186;2024-03-08T05:42:33;42.83;;;18.13;;
809;SDS011;387;48.772;9.186;2024-03-08T05:45:00;33.07;;;16.33;;
809;SDS011;387;48.772;9.186;2024-03-08T05:47:25;38.10;;;18.00;;
809;SDS011;387;48.772;9.186;2024-03-08T05:49:51;43.17;;;18.23;;
809;SDS011;387;48.772;9.186;2024-03-08T05:52:18;38.63;;;18.47;;
809;SDS011;387;48.772;9.186;2024-03-08T05:54:44;33.90;;;17.00;;
809;SDS011;387;48.772;9.186;2024-03-08T05:57:10;43.23;;;18.83;;
809;SDS011;387;48.772;9.186;2024-03-08T05:59:36;34.07;;;17.20;;
809;SDS011;387;48.772;9.186;2024-03-08T06:02:02;42.83;;;19.43;;
809;SDS011;387;48.772;9.186;2024-03-08T06:04:28;41.80;;;18.30;;
809;SDS011;387;48.772;9.186;2024-03-08T06:06:54;42.00;;;18.00;;
809;SDS011;387;48.772;9.186;2024-03-08T06:09:22;48.75;;;21.15;;
809;SDS011;387;48.772;9.186;2024-03-08T06:11:48;39.73;;;19.47;;
809;SDS011;387;48.772;9.186;2024-03-08T06:14:14;39.97;;;17.60;;
809;SDS011;387;48.772;9.186;2024-03-08T06:16:43;40.70;;;18.70;;
809;SDS011;387;48.772;9.186;2024-03-08T06:19:12;39.50;;;18.53;;
809;SDS011;387;48.772;9.186;2024-03-08T06:21:38;42.73;;;18.93;;
809;SDS011;387;48.772;9.186;2024-03-08T06:24:04;42.77;;;19.50;;
809;SDS011;387;48.772;9.186;2024-03-08T06:26:30;42.53;;;19.20;;
809;SDS011;387;48.772;9.186;2024-03-08T06:28:56;41.13;;;18.70;;
809;SDS011;387;48.772;9.186;2024-03-08T06:31:22;43.17;;;19.10;;
809;SDS011;387;48.772;9.186;2024-03-08T06:33:48;44.13;;;18.17;;
809;SDS011;387;48.772;9.186;2024-03-08T06:36:19;47.90;;;20.37;;
809;SDS011;387;48.772;9.186;2024-03-08T06:38:46;37.53;;;18.53;;
809;SDS011;387;48.772;9.186;2024-03-08T06:41:15;34.50;;;17.53;;
809;SDS011;387;48.772;9.186;2024-03-08T06:43:44;36.90;;;17.33;;
809;SDS011;387;48.772;9.186;2024-03-08T06:46:11;38.20;;;18.13;;
809;SDS011;387;48.772;9.186;2024-03-08T06:48:40;49.73;;;22.10;;
809;SDS011;387;48.772;9.186;2024-03-08T06:51:06;43.78;;;19.83;;
809;SDS011;387;48.772;9.186;2024-03-08T06:53:32;42.20;;;19.37;;
809;SDS011;387;48.772;9.186;2024-03-08T06:56:00;43.30;;;19.30;;
809;SDS011;387;48.772;9.186;2024-03-08T06:58:26;43.80;;;19.43;;
809;SDS011;387;48.772;9.186;2024-03-08T07:00:52;40.43;;;19.03;;
809;SDS011;387;48.772;9.186;2024-03-08T07:03:18;43.80;;;19.33;;
809;SDS011;387;48.772;9.186;2024-03-08T07:05:44;47.00;;;19.30;;
809;SDS011;387;48.772;9.186;2024-03-08T07:08:10;38.33;;;19.23;;
809;SDS011;387;48.772;9.186;2024-03-08T07:10:39;41.97;;;18.50;;
809;SDS011;387;48.772;9.186;2024-03-08T07:13:06;42.07;;;19.90;;
809;SDS011;387;48.772;9.186;2024-03-08T07:15:32;40.73;;;18.70;;
809;SDS011;387;48.772;9.186;2024-03-08T07:17:58;37.60;;;18.47;;
809;SDS011;387;48.772;9.186;2024-03-08T07:20:25;37.30;;;17.73;;
809;SDS011;387;48.772;9.186;2024-03-08T07:22:50;38.00;;;18.10;;
809;SDS011;387;48.772;9.186;2024-03-08T07:25:16;44.87;;;19.13;;
809;SDS011;387;48.772;9.186;2024-03-08T07:27:49;44.23;;;19.93;;
809;SDS011;387;48.772;9.186;2024-03-08T07:30:22;38.20;;;17.53;;
809;SDS011;387;48.772;9.186;2024-03-08T07:33:08;43.43;;;20.53;;
809;SDS011;387;48.772;9.186;2024-03-08T07:35:36;40.57;;;19.13;;
809;SDS011;387;48.772;9.186;2024-03-08T07:38:05;39.27;;;18.60;;
809;SDS011;387;48.772;9.186;2024-03-08T07:40:35;39.67;;;18.67;;
809;SDS011;387;48.772;9.186;2024-03-08T07:43:03;41.20;;;19.30;;
809;SDS011;387;48.772;9.186;2024-03-08T07:45:30;41.13;;;17.83;;
809;SDS011;387;48.772;9.186;2024-03-08T07:47:55;43.70;;;20.17;;
809;SDS011;387;48.772;9.186;2024-03-08T07:50:21;42.03;;;18.27;;
809;SDS011;387;48.772;9.186;2024-03-08T07:52:47;37.13;;;18.00;;
809;SDS011;387;48.772;9.186;2024-03-08T07:55:13;37.17;;;18.00;;
809;SDS011;387;48.772;9.186;2024-03-08T07:57:41;41.30;;;19.00;;
809;SDS011;387;48.772;9.186;2024-03-08T08:00:07;35.27;;;16.20;;
809;SDS011;387;48.772;9.186;2024-03-08T08:02:34;36.80;;;16.60;;
809;SDS011;387;48.772;9.186;2024-03-08T08:05:00;37.40;;;16.93;;
809;SDS011;387;48.772;9.186;2024-03-08T08:07:26;38.80;;;17.47;;
809;SDS011;387;48.772;9.186;2024-03-08T08:09:52;33.83;;;16.40;;
809;SDS011;387;48.772;9.186;2024-03-08T08:12:18;39.37;;;17.90;;
809;SDS011;387;48.772;9.186;2024-03-08T08:14:44;37.33;;;17.03;;
809;SDS011;387;48.772;9.186;2024-03-08T08:17:09;31.10;;;15.30;;
809;SDS011;387;48.772;9.186;2024-03-08T08:19:36;33.27;;;16.20;;
809;SDS011;387;48.772;9.186;2024-03-08T08:22:02;35.80;;;16.13;;
809;SDS011;387;48.772;9.186;2024-03-08T08:24:28;31.50;;;16.70;;
809;SDS011;387;48.772;9.186;2024-03-08T08:26:53;35.27;;;16.03;;
809;SDS011;387;48.772;9.186;2024-03-08T08:29:19;36.70;;;16.73;;
809;SDS011;387;48.772;9.186;2024-03-08T08:31:45;37.03;;;16.63;;
809;SDS011;387;48.772;9.186;2024-03-08T08:34:12;35.27;;;17.20;;
809;SDS011;387;48.772;9.186;2024-03-08T08:36:38;31.80;;;17.13;;
809;SDS011;387;48.772;9.186;2024-03-08T08:39:05;44.00;;;19.50;;
809;SDS011;387;48.772;9.186;2024-03-08T08:41:37;37.87;;;17.03;;
809;SDS011;387;48.772;9.186;2024-03-08T08:44:03;35.40;;;17.10;;
809;SDS011;387;48.772;9.186;2024-03-08T08:46:29;34.10;;;17.00;;
809;SDS011;387;48.772;9.186;2024-03-08T08:48:54;33.00;;;16.67;;
809;SDS011;387;48.772;9.186;2024-03-08T08:51:20;31.10;;;16.67;;
809;SDS011;387;48.772;9.186;2024-03-08T08:53:46;31.73;;;16.40;;
809;SDS011;387;48.772;9.186;2024-03-08T08:56:12;37.10;;;18.20;;
809;SDS011;387;48.772;9.186;2024-03-08T08:58:39;33.37;;;15.73;;
809;SDS011;387;48.772;9.186;2024-03-08T09:01:06;35.43;;;15.47;;
809;SDS011;387;48.772;9.186;2024-03-08T09:03:32;39.97;;;19.73;;
809;SDS011;387;48.772;9.186;2024-03-08T09:05:59;32.43;;;16.07;;
809;SDS011;387;48.772;9.186;2024-03-08T09:08:25;37.77;;;17.50;;
809;SDS011;387;48.772;9.186;2024-03-08T09:10:51;33.90;;;16.13;;
809;SDS011;387;48.772;9.186;2024-03-08T09:13:16;33.97;;;16.80;;
809;SDS011;387;48.772;9.186;2024-03-08T09:15:43;34.60;;;18.00;;
809;SDS011;387;48.772;9.186;2024-03-08T09:18:09;37.37;;;17.60;;
809;SDS011;387;48.772;9.186;2024-03-08T09:20:35;34.90;;;16.03;;
809;SDS011;387;48.772;9.186;2024-03-08T09:23:01;34.80;;;17.07;;
809;SDS011;387;48.772;9.186;2024-03-08T09:25:28;38.37;;;17.13;;
809;SDS011;387;48.772;9.186;2024-03-08T09:27:54;39.50;;;15.80;;
809;SDS011;387;48.772;9.186;2024-03-08T09:30:20;37.40;;;16.10;;
809;SDS011;387;48.772;9.186;2024-03-08T09:32:49;33.73;;;16.27;;
809;SDS011;387;48.772;9.186;2024-03-08T09:35:16;37.73;;;16.47;;
809;SDS011;387;48.772;9.186;2024-03-08T09:37:41;30.00;;;16.13;;
809;SDS011;387;48.772;9.186;2024-03-08T09:40:07;34.40;;;16.10;;
809;SDS011;387;48.772;9.186;2024-03-08T09:42:40;37.13;;;15.80;;
809;SDS011;387;48.772;9.186;2024-03-08T09:45:10;35.67;;;16.57;;
809;SDS011;387;48.772;9.186;2024-03-08T09:47:38;39.20;;;15.63;;
809;SDS011;387;48.772;9.186;2024-03-08T09:50:06;34.67;;;15.70;;
809;SDS011;387;48.772;9.186;2024-03-08T09:52:34;34.37;;;16.70;;
809;SDS011;387;48.772;9.186;2024-03-08T09:55:08;36.80;;;15.93;;
809;SDS011;387;48.772;9.186;2024-03-08T09:57:36;32.40;;;16.37;;
809;SDS011;387;48.772;9.186;2024-03-08T10:00:03;35.53;;;16.07;;
809;SDS011;387;48.772;9.186;2024-03-08T10:02:45;32.40;;;16.20;;
809;SDS011;387;48.772;9.186;2024-03-08T10:05:11;30.20;;;15.73;;
809;SDS011;387;48.772;9.186;2024-03-08T10:07:37;33.67;;;16.00;;
809;SDS011;387;48.772;9.186;2024-03-08T10:10:03;30.53;;;15.30;;
809;SDS011;387;48.772;9.186;2024-03-08T10:12:29;34.27;;;15.50;;
809;SDS011;387;48.772;9.186;2024-03-08T10:14:56;34.13;;;15.93;;
809;SDS011;387;48.772;9.186;2024-03-08T10:17:23;36.83;;;16.73;;
809;SDS011;387;48.772;9.186;2024-03-08T10:19:50;30.80;;;15.57;;
809;SDS011;387;48.772;9.186;2024-03-08T10:22:19;31.40;;;15.20;;
809;SDS011;387;48.772;9.186;2024-03-08T10:24:46;28.17;;;14.53;;
809;SDS011;387;48.772;9.186;2024-03-08T10:27:12;40.03;;;17.37;;
809;SDS011;387;48.772;9.186;2024-03-08T10:29:37;33.20;;;14.97;;
809;SDS011;387;48.772;9.186;2024-03-08T10:32:08;31.97;;;16.00;;
809;SDS011;387;48.772;9.186;2024-03-08T10:34:34;31.20;;;15.77;;
809;SDS011;387;48.772;9.186;2024-03-08T10:37:09;30.53;;;15.27;;
809;SDS011;387;48.772;9.186;2024-03-08T10:39:42;29.50;;;14.00;;
809;SDS011;387;48.772;9.186;2024-03-08T10:42:17;30.00;;;14.70;;
809;SDS011;387;48.772;9.186;2024-03-08T10:48:04;31.97;;;15.30;;
809;SDS011;387;48.772;9.186;2024-03-08T10:50:42;31.60;;;15.40;;
809;SDS011;387;48.772;9.186;2024-03-08T10:53:10;31.97;;;15.17;;
809;SDS011;387;48.772;9.186;2024-03-08T10:55:37;32.30;;;13.90;;
809;SDS011;387;48.772;9.186;2024-03-08T10:58:05;31.77;;;14.90;;
809;SDS011;387;48.772;9.186;2024-03-08T11:00:32;28.20;;;14.40;;
809;SDS011;387;48.772;9.186;2024-03-08T11:02:58;33.43;;;15.30;;
809;SDS011;387;48.772;9.186;2024-03-08T11:05:32;29.83;;;15.13;;
809;SDS011;387;48.772;9.186;2024-03-08T11:10:49;33.17;;;16.57;;
809;SDS011;387;48.772;9.186;2024-03-08T11:16:06;29.60;;;14.90;;
809;SDS011;387;48.772;9.186;2024-03-08T11:18:34;34.57;;;15.77;;
809;SDS011;387;48.772;9.186;2024-03-08T11:21:04;33.53;;;16.63;;
809;SDS011;387;48.772;9.186;2024-03-08T11:23:33;37.67;;;16.40;;
809;SDS011;387;48.772;9.186;2024-03-08T11:26:00;29.17;;;14.30;;
809;SDS011;387;48.772;9.186;2024-03-08T11:28:26;36.13;;;14.97;;
809;SDS011;387;48.772;9.186;2024-03-08T11:33:27;32.77;;;15.57;;
809;SDS011;387;48.772;9.186;2024-03-08T11:36:03;31.63;;;15.20;;
809;SDS011;387;48.772;9.186;2024-03-08T11:38:43;34.97;;;15.70;;
809;SDS011;387;48.772;9.186;2024-03-08T11:41:09;30.00;;;15.37;;
809;SDS011;387;48.772;9.186;2024-03-08T11:43:39;31.20;;;16.13;;
809;SDS011;387;48.772;9.186;2024-03-08T11:46:10;32.57;;;16.53;;
809;SDS011;387;48.772;9.186;2024-03-08T11:48:37;32.50;;;15.13;;
809;SDS011;387;48.772;9.186;2024-03-08T11:51:06;28.97;;;14.87;;
809;SDS011;387;48.772;9.186;2024-03-08T11:53:33;30.20;;;15.07;;
809;SDS011;387;48.772;9.186;2024-03-08T11:56:06;29.10;;;15.17;;
809;SDS011;387;48.772;9.186;2024-03-08T11:58:32;26.50;;;13.93;;
809;SDS011;387;48.772;9.186;2024-03-08T12:01:05;26.47;;;14.27;;
809;SDS011;387;48.772;9.186;2024-03-08T12:03:31;27.97;;;14.23;;
809;SDS011;387;48.772;9.186;2024-03-08T12:06:00;28.73;;;13.60;;
809;SDS011;387;48.772;9.186;2024-03-08T12:08:28;32.13;;;15.23;;
809;SDS011;387;48.772;9.186;2024-03-08T12:10:57;29.63;;;15.27;;
809;SDS011;387;48.772;9.186;2024-03-08T12:13:29;29.10;;;13.40;;
809;SDS011;387;48.772;9.186;2024-03-08T12:15:57;37.47;;;15.43;;
809;SDS011;387;48.772;9.186;2024-03-08T12:18:26;33.03;;;16.30;;
809;SDS011;387;48.772;9.186;2024-03-08T12:21:03;35.23;;;16.40;;
809;SDS011;387;48.772;9.186;2024-03-08T12:23:32;28.90;;;14.80;;
809;SDS011;387;48.772;9.186;2024-03-08T12:26:08;29.50;;;14.80;;
809;SDS011;387;48.772;9.186;2024-03-08T12:28:41;37.63;;;17.13;;
809;SDS011;387;48.772;9.186;2024-03-08T12:31:09;32.30;;;15.17;;
809;SDS011;387;48.772;9.186;2024-03-08T12:33:46;31.70;;;15.40;;
809;SDS011;387;48.772;9.186;2024-03-08T12:36:14;29.50;;;14.50;;
809;SDS011;387;48.772;9.186;2024-03-08T12:38:43;30.27;;;15.50;;
809;SDS011;387;48.772;9.186;2024-03-08T12:41:15;28.37;;;14.37;;
809;SDS011;387;48.772;9.186;2024-03-08T12:43:42;35.50;;;16.83;;
809;SDS011;387;48.772;9.186;2024-03-08T12:46:12;29.13;;;14.80;;
809;SDS011;387;48.772;9.186;2024-03-08T12:48:38;32.87;;;17.23;;
809;SDS011;387;48.772;9.186;2024-03-08T12:51:06;31.23;;;14.70;;
809;SDS011;387;48.772;9.186;2024-03-08T12:53:32;32.30;;;15.40;;
809;SDS011;387;48.772;9.186;2024-03-08T12:56:01;30.33;;;15.23;;
809;SDS011;387;48.772;9.186;2024-03-08T12:58:28;33.70;;;16.50;;
809;SDS011;387;48.772;9.186;2024-03-08T13:00:54;33.53;;;16.03;;
809;SDS011;387;48.772;9.186;2024-03-08T13:03:20;27.67;;;14.83;;
809;SDS011;387;48.772;9.186;2024-03-08T13:05:47;32.23;;;15.50;;
809;SDS011;387;48.772;9.186;2024-03-08T13:08:14;29.83;;;15.50;;
809;SDS011;387;48.772;9.186;2024-03-08T13:10:41;32.90;;;16.50;;
809;SDS011;387;48.772;9.186;2024-03-08T13:13:08;31.07;;;15.97;;
809;SDS011;387;48.772;9.186;2024-03-08T13:15:40;35.20;;;17.10;;
809;SDS011;387;48.772;9.186;2024-03-08T13:18:06;34.10;;;15.70;;
809;SDS011;387;48.772;9.186;2024-03-08T13:20:34;31.00;;;15.90;;
809;SDS011;387;48.772;9.186;2024-03-08T13:23:03;29.90;;;14.70;;
809;SDS011;387;48.772;9.186;2024-03-08T13:25:30;37.47;;;17.07;;
809;SDS011;387;48.772;9.186;2024-03-08T13:27:56;28.57;;;15.67;;
809;SDS011;387;48.772;9.186;2024-03-08T13:30:24;33.87;;;16.43;;
809;SDS011;387;48.772;9.186;2024-03-08T13:32:51;36.73;;;17.30;;
809;SDS011;387;48.772;9.186;2024-03-08T13:35:17;35.37;;;16.70;;
809;SDS011;387;48.772;9.186;2024-03-08T13:37:49;31.20;;;15.13;;
809;SDS011;387;48.772;9.186;2024-03-08T13:40:15;34.40;;;16.23;;
809;SDS011;387;48.772;9.186;2024-03-08T13:42:43;36.40;;;17.77;;
809;SDS011;387;48.772;9.186;2024-03-08T13:45:09;34.90;;;17.87;;
809;SDS011;387;48.772;9.186;2024-03-08T13:47:39;32.60;;;15.77;;
809;SDS011;387;48.772;9.186;2024-03-08T13:50:06;37.67;;;16.93;;
809;SDS011;387;48.772;9.186;2024-03-08T13:52:33;38.10;;;16.70;;
809;SDS011;387;48.772;9.186;2024-03-08T13:55:00;36.23;;;17.80;;
809;SDS011;387;48.772;9.186;2024-03-08T13:57:26;33.27;;;16.27;;
809;SDS011;387;48.772;9.186;2024-03-08T13:59:52;35.23;;;16.53;;
809;SDS011;387;48.772;9.186;2024-03-08T14:02:18;35.87;;;14.90;;
809;SDS011;387;48.772;9.186;2024-03-08T14:04:43;31.23;;;16.37;;
809;SDS011;387;48.772;9.186;2024-03-08T14:07:09;37.10;;;15.90;;
809;SDS011;387;48.772;9.186;2024-03-08T14:09:36;34.00;;;15.30;;
809;SDS011;387;48.772;9.186;2024-03-08T14:12:05;35.23;;;16.03;;
809;SDS011;387;48.772;9.186;2024-03-08T14:14:32;32.23;;;16.00;;
809;SDS011;387;48.772;9.186;2024-03-08T14:17:02;33.40;;;15.57;;
809;SDS011;387;48.772;9.186;2024-03-08T14:19:28;27.20;;;13.53;;
809;SDS011;387;48.772;9.186;2024-03-08T14:21:55;26.07;;;13.57;;
809;SDS011;387;48.772;9.186;2024-03-08T14:24:21;30.20;;;15.80;;
809;SDS011;387;48.772;9.186;2024-03-08T14:26:48;33.67;;;15.57;;
809;SDS011;387;48.772;9.186;2024-03-08T14:29:14;27.03;;;13.77;;
809;SDS011;387;48.772;9.186;2024-03-08T14:31:40;28.67;;;14.57;;
809;SDS011;387;48.772;9.186;2024-03-08T14:34:08;27.10;;;14.93;;
809;SDS011;387;48.772;9.186;2024-03-08T14:36:34;29.60;;;15.67;;
809;SDS011;387;48.772;9.186;2024-03-08T14:38:59;39.17;;;15.70;;
809;SDS011;387;48.772;9.186;2024-03-08T14:41:25;31.83;;;14.00;;
809;SDS011;387;48.772;9.186;2024-03-08T14:43:51;34.70;;;16.23;;
809;SDS011;387;48.772;9.186;2024-03-08T14:46:21;34.43;;;14.87;;
809;SDS011;387;48.772;9.186;2024-03-08T14:48:48;34.00;;;15.80;;
809;SDS011;387;48.772;9.186;2024-03-08T14:51:16;29.03;;;15.10;;
809;SDS011;387;48.772;9.186;2024-03-08T14:53:46;30.53;;;15.23;;
809;SDS011;387;48.772;9.186;2024-03-08T14:56:12;26.43;;;14.13;;
809;SDS011;387;48.772;9.186;2024-03-08T14:58:41;33.13;;;16.20;;
809;SDS011;387;48.772;9.186;2024-03-08T15:01:11;33.40;;;16.67;;
809;SDS011;387;48.772;9.186;2024-03-08T15:03:43;33.37;;;15.40;;
809;SDS011;387;48.772;9.186;2024-03-08T15:06:09;29.80;;;15.53;;
809;SDS011;387;48.772;9.186;2024-03-08T15:08:36;30.00;;;15.33;;
809;SDS011;387;48.772;9.186;2024-03-08T15:11:02;32.90;;;15.10;;
809;SDS011;387;48.772;9.186;2024-03-08T15:13:27;34.03;;;15.73;;
809;SDS011;387;48.772;9.186;2024-03-08T15:15:58;28.70;;;14.60;;
809;SDS011;387;48.772;9.186;2024-03-08T15:18:24;29.50;;;15.27;;
809;SDS011;387;48.772;9.186;2024-03-08T15:20:54;31.20;;;16.10;;
809;SDS011;387;48.772;9.186;2024-03-08T15:23:20;29.00;;;15.27;;
809;SDS011;387;48.772;9.186;2024-03-08T15:25:46;30.80;;;16.57;;